Trapper Creek, Alaska
Current Conditions -  °F | °C
As of 9:53 AM on Friday 24 Oct 2014 (Local Time) from PATK Reporting Station
Haze Haze  
Wind Chill: 23°   Ceiling: 7000
Heat Index: 23°   Visibility: 5mi
Dew Point: 20°   Wind: 0mph
Humidity: 88%   Direction: NA
Pressure: 29.8"   Gusts: NA
Location:  62.24°N, 150.42°W
Report Text: PATK 241753Z 00000KT 5SM BR OVC070 M05/M07 A2980 RMK AO2 SLP098 T10501067 11044 21078 50003
Loading
Personal Weather Stations






























Interactive Weather Map
Tropical Storm Tracking
New forecast layout! Learn more

10-Day Weather Forecast

Advertisements
Track Severe Weather on mobile